Time;durP1;ratioP1;P1;durP2;ratioP2;P2;SDS_P1;SDS_P2;PMS_P1;PMS_P2;Temp;Humidity;BMP_temperature;BMP_pressure;BME280_temperature;BME280_humidity;BME280_pressure;Samples;Min_cycle;Max_cycle;Signal;HPM_P1;HPM_P2
2022/06/12 00:02:14;;;;;;;14.85;5.32;;;;;;;13.84;100.00;102199.03;4905178;29;20044;-79
2022/06/12 00:04:42;;;;;;;15.68;5.63;;;;;;;13.82;100.00;102194.59;4906180;29;20158;-78
2022/06/12 00:07:11;;;;;;;18.15;4.55;;;;;;;13.81;100.00;102208.69;4858320;29;20063;-79
2022/06/12 00:09:40;;;;;;;16.65;4.72;;;;;;;13.79;100.00;102194.53;4897360;29;20241;-79
2022/06/12 00:12:08;;;;;;;17.27;4.28;;;;;;;13.78;100.00;102203.34;4905516;29;20044;-78
2022/06/12 00:14:37;;;;;;;19.08;4.65;;;;;;;13.74;100.00;102201.53;4871377;29;20272;-80
2022/06/12 00:17:06;;;;;;;15.48;4.20;;;;;;;13.71;100.00;102202.41;4869883;29;20417;-80
2022/06/12 00:19:35;;;;;;;14.13;4.50;;;;;;;13.68;100.00;102199.72;4906302;29;20067;-78
2022/06/12 00:22:04;;;;;;;15.75;5.05;;;;;;;13.65;100.00;102202.34;4896895;29;20925;-78
2022/06/12 00:24:33;;;;;;;13.88;3.88;;;;;;;13.62;100.00;102203.16;4870023;29;20045;-78
2022/06/12 00:27:03;;;;;;;19.17;4.82;;;;;;;13.60;100.00;102207.56;4907183;29;20605;-78
2022/06/12 00:29:35;;;;;;;12.40;3.97;;;;;;;13.59;100.00;102196.94;4858026;29;20052;-78
2022/06/12 00:32:08;;;;;;;15.20;4.65;;;;;;;13.56;100.00;102199.56;4878860;29;20056;-79
2022/06/12 00:34:42;;;;;;;16.45;4.60;;;;;;;13.53;100.00;102202.19;4908402;29;20075;-81
2022/06/12 00:37:12;;;;;;;15.05;4.55;;;;;;;13.51;100.00;102195.97;4902154;29;20052;-80
2022/06/12 00:39:42;;;;;;;10.43;3.63;;;;;;;13.48;100.00;102201.22;4907331;29;20406;-81
2022/06/12 00:42:36;;;;;;;15.15;4.35;;;;;;;13.45;100.00;102188.84;4878219;29;20394;-81
2022/06/12 00:45:26;;;;;;;10.52;4.10;;;;;;;13.40;100.00;102190.53;4900830;29;20438;-79
2022/06/12 00:48:01;;;;;;;13.13;4.38;;;;;;;13.36;100.00;102192.25;4865744;29;20733;-79
2022/06/12 00:50:30;;;;;;;10.30;4.07;;;;;;;13.32;100.00;102187.78;4908549;29;20036;-78
2022/06/12 00:53:00;;;;;;;14.13;4.32;;;;;;;13.30;100.00;102189.53;4866818;29;20048;-80
2022/06/12 00:56:07;;;;;;;10.40;3.58;;;;;;;13.27;100.00;102185.06;4885289;29;20406;-80
2022/06/12 00:58:41;;;;;;;10.98;3.45;;;;;;;13.25;100.00;102184.16;4888861;29;20040;-80
2022/06/12 01:01:18;;;;;;;12.27;3.72;;;;;;;13.25;100.00;102189.44;4877725;29;20784;-80
2022/06/12 01:06:35;;;;;;;12.40;3.95;;;;;;;13.23;100.00;102183.25;4899300;29;20051;-80
2022/06/12 01:09:11;;;;;;;10.25;4.10;;;;;;;13.22;100.00;102185.88;4889254;29;20044;-80
2022/06/12 01:11:43;;;;;;;11.13;3.80;;;;;;;13.20;100.00;102184.97;4908198;29;20040;-80
2022/06/12 01:14:14;;;;;;;7.85;4.00;;;;;;;13.17;100.00;102185.78;4908285;29;20056;-81
2022/06/12 01:16:48;;;;;;;9.18;3.63;;;;;;;13.15;100.00;102174.28;4872200;29;20398;-81
2022/06/12 01:19:34;;;;;;;8.63;3.50;;;;;;;13.12;100.00;102179.56;4886891;29;20064;-80
2022/06/12 01:22:21;;;;;;;16.77;4.10;;;;;;;13.10;100.00;102175.09;4890164;29;20075;-80
2022/06/12 01:24:50;;;;;;;9.35;3.08;;;;;;;13.07;100.00;102165.38;4897454;29;20055;-81
2022/06/12 01:27:45;;;;;;;7.97;3.03;;;;;;;13.03;100.00;102167.06;4899516;29;20427;-79
2022/06/12 01:30:23;;;;;;;7.95;3.33;;;;;;;13.00;100.00;102168.78;4908946;29;20059;-79
2022/06/12 01:33:31;;;;;;;10.65;2.55;;;;;;;12.99;100.00;102159.97;4858496;29;20036;-80
2022/06/12 01:36:05;;;;;;;13.10;3.30;;;;;;;12.98;100.00;102162.59;4881928;29;20576;-80
2022/06/12 01:38:53;;;;;;;7.95;2.83;;;;;;;12.96;100.00;102157.25;4908267;29;20052;-80
2022/06/12 01:41:47;;;;;;;13.13;3.15;;;;;;;12.94;100.00;102160.78;4894002;29;20052;-80
2022/06/12 01:44:29;;;;;;;10.82;3.22;;;;;;;12.92;100.00;102149.28;4907457;29;20028;-79
2022/06/12 01:47:04;;;;;;;8.93;2.95;;;;;;;12.92;100.00;102143.97;4906414;29;20075;-80
2022/06/12 01:50:18;;;;;;;12.50;2.83;;;;;;;12.90;100.00;102140.44;4873726;29;20043;-80
2022/06/12 01:53:10;;;;;;;10.02;2.60;;;;;;;12.88;100.00;102141.28;4904953;29;20044;-81
2022/06/12 01:55:45;;;;;;;11.33;2.97;;;;;;;12.87;100.00;102135.97;4917608;29;20090;-79
2022/06/12 01:58:53;;;;;;;8.25;3.08;;;;;;;12.85;100.00;102141.25;4890441;29;20067;-80
2022/06/12 02:01:47;;;;;;;10.85;2.70;;;;;;;12.84;100.00;102134.19;4911092;29;20060;-80
2022/06/12 02:04:31;;;;;;;8.60;3.08;;;;;;;12.83;100.00;102135.03;4875909;29;20333;-79
2022/06/12 02:07:19;;;;;;;10.50;2.78;;;;;;;12.83;100.00;102129.75;4896533;29;20237;-79
2022/06/12 02:09:58;;;;;;;5.50;2.65;;;;;;;12.85;100.00;102132.41;4893435;29;20048;-79
2022/06/12 02:15:20;;;;;;;7.85;3.72;;;;;;;12.84;100.00;102135.94;4908177;29;20059;-79
2022/06/12 02:17:58;;;;;;;8.90;3.28;;;;;;;12.84;100.00;102133.28;4905583;29;20055;-80
2022/06/12 02:20:33;;;;;;;9.10;3.00;;;;;;;12.81;100.00;102128.81;4879699;29;20036;-79
2022/06/12 02:23:07;;;;;;;7.25;2.92;;;;;;;12.80;100.00;102127.06;4905824;29;20051;-79
2022/06/12 02:25:40;;;;;;;8.00;2.75;;;;;;;12.79;100.00;102129.69;4906963;29;20048;-78
2022/06/12 02:28:15;;;;;;;12.10;2.90;;;;;;;12.76;100.00;102127.91;4898784;29;20289;-80
2022/06/12 02:30:48;;;;;;;12.60;3.30;;;;;;;12.75;100.00;102136.69;4906605;29;20048;-79
2022/06/12 02:33:32;;;;;;;10.43;2.95;;;;;;;12.73;100.00;102127.84;4895320;29;20048;-79
2022/06/12 02:36:18;;;;;;;8.38;2.88;;;;;;;12.72;100.00;102127.81;4876224;29;20158;-80
2022/06/12 02:38:59;;;;;;;7.22;2.70;;;;;;;12.70;100.00;102127.78;4887742;29;20044;-80
2022/06/12 02:41:33;;;;;;;7.82;2.85;;;;;;;12.67;100.00;102133.94;4908881;29;20394;-79
2022/06/12 02:44:15;;;;;;;8.07;2.85;;;;;;;12.66;100.00;102137.47;4876566;29;20044;-79
2022/06/12 02:46:54;;;;;;;10.05;2.53;;;;;;;12.67;100.00;102131.28;4889104;29;20048;-80
2022/06/12 02:49:23;;;;;;;10.05;3.33;;;;;;;12.67;100.00;102133.03;4914958;28;20036;-78
2022/06/12 02:52:06;;;;;;;7.75;2.97;;;;;;;12.66;100.00;102126.88;4874397;29;20036;-80
2022/06/12 02:54:48;;;;;;;12.93;4.07;;;;;;;12.66;100.00;102134.81;4906857;29;20044;-79
2022/06/12 02:57:40;;;;;;;5.80;3.20;;;;;;;12.66;100.00;102131.25;4907203;29;20052;-78
2022/06/12 03:00:31;;;;;;;7.68;2.83;;;;;;;12.65;100.00;102130.38;4890722;29;20079;-80
2022/06/12 03:03:18;;;;;;;10.32;3.35;;;;;;;12.64;100.00;102127.69;4902844;29;20055;-80
2022/06/12 03:05:50;;;;;;;11.60;3.47;;;;;;;12.62;100.00;102125.03;4893586;29;20505;-80
2022/06/12 03:08:24;;;;;;;6.78;2.67;;;;;;;12.59;100.00;102130.28;4909145;29;20051;-78
2022/06/12 03:10:57;;;;;;;8.93;2.83;;;;;;;12.57;100.00;102118.81;4890543;29;20333;-80
2022/06/12 03:13:28;;;;;;;9.52;2.90;;;;;;;12.56;100.00;102124.06;4875224;29;20056;-78
2022/06/12 03:16:08;;;;;;;10.00;3.15;;;;;;;12.53;100.00;102124.00;4883958;29;20250;-79
2022/06/12 03:18:41;;;;;;;11.65;3.00;;;;;;;12.51;100.00;102123.97;4898348;29;20044;-81
2022/06/12 03:21:44;;;;;;;7.40;3.25;;;;;;;12.51;100.00;102131.03;4903750;29;20060;-78
2022/06/12 03:24:12;;;;;;;11.07;2.45;;;;;;;12.47;100.00;102130.97;4886673;29;20032;-78
2022/06/12 03:26:56;;;;;;;9.63;3.08;;;;;;;12.47;100.00;102130.09;4889771;29;20039;-80
2022/06/12 03:29:52;;;;;;;14.85;3.63;;;;;;;12.45;100.00;102131.81;4908131;29;20048;-80
2022/06/12 03:32:38;;;;;;;10.38;2.95;;;;;;;12.44;100.00;102138.88;4906970;29;20044;-78
2022/06/12 03:35:35;;;;;;;7.03;2.65;;;;;;;12.44;100.00;102141.50;4907739;29;20274;-78
2022/06/12 03:38:20;;;;;;;9.13;2.58;;;;;;;12.45;100.00;102134.47;4873291;29;20178;-78
2022/06/12 03:40:55;;;;;;;5.47;2.78;;;;;;;12.42;100.00;102140.59;4905477;29;20056;-81
2022/06/12 03:43:36;;;;;;;7.05;2.78;;;;;;;12.41;100.00;102130.00;4891758;29;20040;-80
2022/06/12 03:46:24;;;;;;;6.28;2.90;;;;;;;12.39;100.00;102126.44;4888653;29;20048;-80
2022/06/12 03:49:27;;;;;;;10.18;3.65;;;;;;;12.38;100.00;102129.94;4900069;29;20546;-80
2022/06/12 03:52:04;;;;;;;4.85;2.35;;;;;;;12.38;100.00;102135.22;4909780;29;20162;-80
2022/06/12 03:54:43;;;;;;;8.68;2.85;;;;;;;12.34;100.00;102146.59;4851750;29;20052;-80
2022/06/12 03:57:51;;;;;;;10.60;3.85;;;;;;;12.34;100.00;102147.50;4911222;29;20051;-79
2022/06/12 04:00:32;;;;;;;6.38;3.38;;;;;;;12.35;100.00;102136.06;4873059;29;20506;-79
2022/06/12 04:03:10;;;;;;;11.38;3.85;;;;;;;12.36;100.00;102139.59;4902939;29;20356;-80
2022/06/12 04:05:44;;;;;;;14.82;4.03;;;;;;;12.35;100.00;102136.06;4910210;29;20056;-80
2022/06/12 04:08:19;;;;;;;8.07;3.80;;;;;;;12.36;100.00;102137.88;4895317;29;20071;-80
2022/06/12 04:10:49;;;;;;;14.50;3.60;;;;;;;12.38;100.00;102135.22;4860233;29;20056;-81
2022/06/12 04:13:19;;;;;;;10.65;3.20;;;;;;;12.38;100.00;102133.50;4915337;29;20063;-80
2022/06/12 04:16:10;;;;;;;9.90;3.40;;;;;;;12.40;100.00;102133.47;4903261;29;20040;-80
2022/06/12 04:18:38;;;;;;;10.68;3.40;;;;;;;12.42;100.00;102129.09;4901991;29;20059;-78
2022/06/12 04:21:13;;;;;;;11.88;3.45;;;;;;;12.43;100.00;102137.06;4895196;29;20568;-80
2022/06/12 04:24:04;;;;;;;9.20;3.00;;;;;;;12.47;100.00;102130.09;4895080;29;20453;-80
2022/06/12 04:26:42;;;;;;;9.45;3.33;;;;;;;12.50;100.00;102132.78;4893971;29;20060;-80
2022/06/12 04:29:11;;;;;;;8.10;3.60;;;;;;;12.53;100.00;102126.66;4911410;29;20059;-78
2022/06/12 04:31:44;;;;;;;7.57;3.33;;;;;;;12.55;100.00;102138.13;4891598;29;20040;-80
2022/06/12 04:34:23;;;;;;;4.55;3.13;;;;;;;12.59;100.00;102129.38;4925931;29;20067;-79
2022/06/12 04:36:55;;;;;;;8.27;2.95;;;;;;;12.63;100.00;102132.09;4892183;29;20052;-80
2022/06/12 04:39:30;;;;;;;13.23;3.25;;;;;;;12.68;100.00;102134.81;4865774;29;20055;-80
2022/06/12 04:42:00;;;;;;;7.47;3.00;;;;;;;12.74;100.00;102134.00;4908228;29;20048;-78
2022/06/12 04:44:29;;;;;;;9.93;3.60;;;;;;;12.79;100.00;102137.63;4895026;29;20044;-80
2022/06/12 04:47:00;;;;;;;14.95;4.07;;;;;;;12.84;100.00;102136.81;4898175;29;20933;-79
2022/06/12 04:49:31;;;;;;;9.65;3.60;;;;;;;12.90;100.00;102129.84;4911279;29;20393;-79
2022/06/12 04:52:01;;;;;;;8.93;4.05;;;;;;;12.99;100.00;102145.84;4915868;29;20406;-79
2022/06/12 04:54:31;;;;;;;12.50;3.83;;;;;;;13.07;100.00;102152.13;4893241;29;20036;-79
2022/06/12 04:56:59;;;;;;;13.75;2.88;;;;;;;13.16;100.00;102144.31;4888955;29;20245;-80
2022/06/12 04:59:29;;;;;;;9.75;3.10;;;;;;;13.27;100.00;102142.69;4893627;29;20059;-79
2022/06/12 05:01:58;;;;;;;6.78;2.95;;;;;;;13.41;100.00;102145.53;4903141;29;20052;-79
2022/06/12 05:04:27;;;;;;;11.40;3.28;;;;;;;13.58;100.00;102148.38;4901775;29;20048;-78
2022/06/12 05:06:56;;;;;;;11.60;3.45;;;;;;;13.70;100.00;102144.09;4890886;29;20045;-79
2022/06/12 05:09:27;;;;;;;10.32;3.30;;;;;;;13.80;100.00;102136.28;4908877;29;20075;-79
2022/06/12 05:11:56;;;;;;;10.60;2.90;;;;;;;13.86;100.00;102131.94;4883789;29;20567;-79
2022/06/12 05:14:25;;;;;;;9.15;2.95;;;;;;;13.97;100.00;102140.84;4888248;29;20048;-78
2022/06/12 05:17:01;;;;;;;11.93;3.55;;;;;;;14.68;100.00;102131.75;4905603;29;20255;-79
2022/06/12 05:19:35;;;;;;;10.38;3.08;;;;;;;15.53;100.00;102129.50;4903857;29;20052;-79
2022/06/12 05:22:06;;;;;;;8.00;2.78;;;;;;;15.90;100.00;102135.84;4907267;29;20154;-79
2022/06/12 05:24:36;;;;;;;10.40;2.50;;;;;;;16.32;100.00;102131.41;4884352;29;20048;-79
2022/06/12 05:27:08;;;;;;;8.23;2.87;;;;;;;16.76;100.00;102125.16;4921143;28;20465;-79
2022/06/12 05:29:39;;;;;;;7.97;2.67;;;;;;;17.24;100.00;102125.06;4908667;29;20075;-78
2022/06/12 05:32:09;;;;;;;;;;;;;;;17.34;100.00;102128.56;4905794;29;20306;-78
2022/06/12 05:34:38;;;;;;;14.90;3.40;;;;;;;17.56;100.00;102126.69;4904614;29;20281;-80
2022/06/12 05:37:07;;;;;;;7.68;3.45;;;;;;;18.14;100.00;102127.22;4904791;29;20067;-80
2022/06/12 05:39:37;;;;;;;11.30;3.25;;;;;;;18.92;100.00;102128.28;4907634;29;20044;-81
2022/06/12 05:42:06;;;;;;;10.38;2.80;;;;;;;19.62;100.00;102124.72;4888565;29;20635;-80
2022/06/12 05:44:35;;;;;;;7.78;2.65;;;;;;;19.73;100.00;102119.22;4910804;29;20398;-81
2022/06/12 05:47:04;;;;;;;8.13;3.03;;;;;;;19.86;100.00;102112.78;4892453;29;20556;-80
2022/06/12 05:49:33;;;;;;;8.32;2.90;;;;;;;20.08;100.00;102109.78;4894022;29;20052;-81
2022/06/12 05:52:02;;;;;;;11.50;3.05;;;;;;;20.17;99.32;102115.00;4900074;29;20276;-80
2022/06/12 05:54:30;;;;;;;10.25;3.25;;;;;;;20.16;97.67;102125.72;4878623;29;20047;-81
2022/06/12 05:56:59;;;;;;;10.32;3.13;;;;;;;20.10;96.01;102123.16;4862002;29;20159;-80
2022/06/12 05:59:27;;;;;;;11.63;2.65;;;;;;;20.00;95.53;102123.28;4863926;29;20063;-80
2022/06/12 06:01:56;;;;;;;11.27;2.63;;;;;;;19.91;94.80;102127.91;4889774;29;20059;-80
2022/06/12 06:04:24;;;;;;;11.68;2.92;;;;;;;19.78;95.03;102124.53;4907471;29;20051;-80
2022/06/12 06:06:59;;;;;;;13.23;2.80;;;;;;;19.78;97.55;102127.19;4867606;29;20055;-79
2022/06/12 06:09:29;;;;;;;8.82;3.28;;;;;;;20.08;96.41;102127.63;4909219;29;20048;-79
2022/06/12 06:11:57;;;;;;;13.52;3.67;;;;;;;20.32;93.88;102134.34;4878144;29;20048;-79
2022/06/12 06:14:25;;;;;;;11.60;3.38;;;;;;;20.53;91.91;102136.69;4893793;29;20057;-79
2022/06/12 06:16:55;;;;;;;16.30;4.45;;;;;;;20.59;91.19;102143.72;4889050;29;20334;-79
2022/06/12 06:19:24;;;;;;;15.00;3.08;;;;;;;20.64;91.07;102137.41;4892368;29;20532;-79
2022/06/12 06:21:52;;;;;;;13.73;3.67;;;;;;;20.75;90.43;102145.22;4896068;29;20618;-79
2022/06/12 06:24:20;;;;;;;14.90;4.00;;;;;;;20.72;89.24;102141.72;4860884;29;20048;-79
2022/06/12 06:26:49;;;;;;;11.40;3.55;;;;;;;20.66;89.20;102133.78;4903072;29;20048;-80
2022/06/12 06:29:17;;;;;;;14.93;3.42;;;;;;;20.51;89.59;102141.19;4879109;29;20051;-80
2022/06/12 06:31:46;;;;;;;13.50;3.47;;;;;;;20.24;89.41;102140.75;4905325;29;20490;-80
2022/06/12 06:34:14;;;;;;;17.77;3.78;;;;;;;20.05;90.58;102133.91;4873040;29;20053;-80
2022/06/12 06:36:43;;;;;;;16.42;3.90;;;;;;;19.88;91.58;102146.66;4897262;29;20044;-80
2022/06/12 06:39:14;;;;;;;11.98;3.50;;;;;;;19.90;92.55;102140.38;4891113;29;20485;-80
2022/06/12 06:41:42;;;;;;;20.08;4.07;;;;;;;19.90;92.60;102140.38;4876244;29;20051;-80
2022/06/12 06:46:57;;;;;;;16.83;3.95;;;;;;;19.81;93.42;102138.75;4892027;29;20333;-80
2022/06/12 06:49:26;;;;;;;14.95;3.35;;;;;;;19.76;94.25;102137.03;4908948;29;20055;-80
2022/06/12 06:51:55;;;;;;;18.05;4.03;;;;;;;19.61;94.40;102140.78;4889068;29;20040;-80
2022/06/12 06:54:24;;;;;;;15.25;4.13;;;;;;;19.62;95.16;102142.53;4889466;29;20141;-80
2022/06/12 06:56:53;;;;;;;17.60;4.30;;;;;;;19.63;96.31;102152.34;4902664;29;20272;-80
2022/06/12 06:59:22;;;;;;;16.38;3.85;;;;;;;19.72;97.21;102144.22;4907546;29;20059;-80
2022/06/12 07:01:51;;;;;;;11.60;4.00;;;;;;;19.72;96.44;102135.28;4872309;29;20270;-80
2022/06/12 07:04:20;;;;;;;17.80;4.32;;;;;;;19.70;96.15;102135.31;4907324;29;20055;-80
2022/06/12 07:06:48;;;;;;;19.40;4.60;;;;;;;19.66;97.00;102147.84;4857110;29;20126;-79
2022/06/12 07:09:17;;;;;;;14.65;4.22;;;;;;;19.60;97.36;102139.91;4865747;29;20048;-80
2022/06/12 07:11:46;;;;;;;19.92;4.65;;;;;;;19.60;98.25;102139.91;4884386;29;20040;-81
2022/06/12 07:14:16;;;;;;;15.18;3.53;;;;;;;19.62;98.48;102143.44;4891770;29;20052;-80
2022/06/12 07:16:51;;;;;;;12.77;3.67;;;;;;;19.63;99.16;102144.31;4835003;29;20059;-80
2022/06/12 07:19:19;;;;;;;19.70;4.45;;;;;;;19.62;98.82;102142.53;4917909;29;20087;-81
2022/06/12 07:21:47;;;;;;;20.00;4.30;;;;;;;19.59;98.94;102138.13;4872569;29;20040;-80
2022/06/12 07:24:16;;;;;;;17.90;4.63;;;;;;;19.55;99.36;102143.53;4895677;29;20375;-78
2022/06/12 07:26:47;;;;;;;16.67;3.63;;;;;;;19.39;99.13;102149.06;4906886;29;20043;-81
2022/06/12 07:29:18;;;;;;;18.52;4.78;;;;;;;19.36;100.00;102148.25;4910206;29;20514;-80
2022/06/12 07:31:48;;;;;;;15.43;4.57;;;;;;;19.41;100.00;102146.38;4876834;29;20036;-81
2022/06/12 07:34:17;;;;;;;18.00;4.18;;;;;;;19.45;100.00;102146.34;4878762;29;20055;-80
2022/06/12 07:36:48;;;;;;;16.65;4.15;;;;;;;19.56;100.00;102140.81;4891931;29;20044;-81
2022/06/12 07:39:22;;;;;;;15.65;3.90;;;;;;;19.64;100.00;102143.38;4910333;29;20056;-80
2022/06/12 07:41:52;;;;;;;16.00;4.28;;;;;;;19.66;100.00;102139.81;4900950;29;20562;-80
2022/06/12 07:44:23;;;;;;;16.75;3.75;;;;;;;19.73;99.84;102135.28;4912621;29;20063;-78
2022/06/12 07:46:54;;;;;;;17.98;4.00;;;;;;;19.88;99.66;102135.97;4877007;29;20060;-80
2022/06/12 07:49:25;;;;;;;15.02;4.00;;;;;;;19.92;97.38;102145.72;4896213;29;20052;-80
2022/06/12 07:51:57;;;;;;;13.23;3.75;;;;;;;19.85;96.65;102135.09;4891616;29;20632;-80
2022/06/12 07:54:26;;;;;;;14.82;4.35;;;;;;;19.86;96.55;102142.22;4894251;29;20047;-80
2022/06/12 07:56:55;;;;;;;15.02;3.85;;;;;;;19.84;95.85;102135.13;4887020;29;20056;-80
2022/06/12 07:59:24;;;;;;;16.02;5.00;;;;;;;19.93;97.25;102142.13;4895078;29;20126;-79
2022/06/12 08:01:53;;;;;;;19.27;4.43;;;;;;;19.98;96.89;102132.22;4868658;29;20044;-79
2022/06/12 08:04:23;;;;;;;15.38;3.53;;;;;;;20.02;96.27;102142.00;4868075;29;20074;-79
2022/06/12 08:06:53;;;;;;;13.38;3.83;;;;;;;20.04;96.46;102143.72;4878875;29;20598;-80
2022/06/12 08:09:21;;;;;;;11.93;3.95;;;;;;;20.07;94.25;102140.13;4910225;29;20043;-79
2022/06/12 08:11:51;;;;;;;16.15;3.47;;;;;;;20.15;94.71;102140.00;4908282;29;20847;-79
2022/06/12 08:14:21;;;;;;;16.65;4.15;;;;;;;20.20;94.99;102144.34;4911552;29;20052;-79
2022/06/12 08:16:50;;;;;;;;;;;;;;;20.16;91.61;102150.66;4876819;29;21524;-80
2022/06/12 08:22:08;;;;;;;12.35;3.15;;;;;;;20.08;93.21;102141.03;4900659;29;20569;-79
2022/06/12 08:24:36;;;;;;;;;;;;;;;20.04;91.08;102140.19;4911316;29;20067;-80
2022/06/12 08:27:06;;;;;;;9.85;3.28;;;;;;;20.02;93.64;102145.56;4908997;29;20231;-78
2022/06/12 08:29:35;;;;;;;12.33;4.20;;;;;;;20.05;93.23;102141.94;4894073;29;20121;-79
2022/06/12 08:32:11;;;;;;;13.27;3.60;;;;;;;20.08;94.19;102141.91;4914535;29;20699;-78
2022/06/12 08:34:44;;;;;;;11.75;3.72;;;;;;;20.18;93.10;102143.50;4875013;29;20060;-79
2022/06/12 08:37:18;;;;;;;12.70;3.65;;;;;;;20.28;93.50;102136.19;4901014;29;20037;-79
2022/06/12 08:39:50;;;;;;;16.50;3.90;;;;;;;20.42;93.02;102141.34;4908310;29;20048;-78
2022/06/12 08:42:54;;;;;;;15.13;3.88;;;;;;;20.55;91.69;102137.53;4910205;29;20158;-79
2022/06/12 08:45:29;;;;;;;11.93;3.05;;;;;;;20.53;90.55;102139.34;4911910;29;20052;-80
2022/06/12 08:48:07;;;;;;;15.80;3.47;;;;;;;20.40;89.68;102136.00;4907758;29;20699;-80
2022/06/12 08:50:48;;;;;;;10.48;2.97;;;;;;;20.41;88.92;102134.19;4890194;29;20390;-80
2022/06/12 08:53:19;;;;;;;11.63;2.92;;;;;;;20.45;89.13;102142.16;4898931;29;20130;-80
2022/06/12 08:56:05;;;;;;;9.93;2.78;;;;;;;20.58;90.14;102142.81;4908334;29;20052;-80
2022/06/12 08:58:54;;;;;;;10.43;3.05;;;;;;;20.78;87.44;102126.41;4893005;29;20051;-81
2022/06/12 09:01:22;;;;;;;8.18;2.75;;;;;;;21.00;87.30;102132.25;4911882;29;20067;-80
2022/06/12 09:03:53;;;;;;;11.43;2.92;;;;;;;21.16;87.06;102132.81;4906690;29;20044;-81
2022/06/12 09:06:43;;;;;;;12.60;3.10;;;;;;;21.18;85.09;102140.81;4878768;29;20052;-80
2022/06/12 09:09:40;;;;;;;14.65;3.10;;;;;;;21.10;82.77;102140.97;4914772;29;20048;-80
2022/06/12 09:12:24;;;;;;;11.05;3.28;;;;;;;21.08;83.87;102126.72;4909766;29;20040;-80
2022/06/12 09:15:20;;;;;;;11.68;2.80;;;;;;;21.14;82.58;102123.03;4906617;29;20266;-80
2022/06/12 09:18:07;;;;;;;15.52;3.70;;;;;;;21.15;82.32;102128.38;4889538;29;20048;-80
2022/06/12 09:20:36;;;;;;;12.55;3.33;;;;;;;21.05;81.81;102128.59;4850189;29;20044;-80
2022/06/12 09:23:27;;;;;;;10.48;3.28;;;;;;;20.87;81.57;102127.13;4891509;29;20055;-80
2022/06/12 09:26:23;;;;;;;10.07;2.95;;;;;;;20.82;83.48;102113.84;4899568;29;20248;-80
2022/06/12 09:29:05;;;;;;;13.57;2.97;;;;;;;20.85;83.64;102113.81;4901554;29;20055;-78
2022/06/12 09:32:11;;;;;;;9.30;2.92;;;;;;;20.88;81.65;102110.16;4906217;29;20048;-80
2022/06/12 09:35:13;;;;;;;10.73;3.13;;;;;;;20.76;81.45;102100.59;4893095;29;20254;-81
2022/06/12 09:40:55;;;;;;;11.93;3.15;;;;;;;20.49;82.56;102105.53;4908699;29;20048;-80
2022/06/12 09:43:30;;;;;;;10.38;2.83;;;;;;;20.40;83.50;102103.00;4897616;29;20397;-81
2022/06/12 09:46:33;;;;;;;13.50;3.20;;;;;;;20.34;82.46;102100.41;4909827;29;20056;-80
2022/06/12 09:49:01;;;;;;;12.95;3.13;;;;;;;20.24;83.06;102105.97;4910729;29;20044;-80
2022/06/12 09:52:07;;;;;;;16.75;3.67;;;;;;;20.16;82.54;102093.59;4860858;29;20434;-81
2022/06/12 09:54:36;;;;;;;11.90;3.50;;;;;;;20.06;83.63;102095.56;4904478;29;20048;-78
2022/06/12 09:57:24;;;;;;;12.95;3.53;;;;;;;19.95;83.95;102098.41;4908096;29;20048;-80
2022/06/12 09:59:59;;;;;;;8.90;2.88;;;;;;;19.84;84.43;102092.31;4916899;29;20239;-79
2022/06/12 10:02:44;;;;;;;11.68;3.63;;;;;;;19.77;84.58;102098.69;4907617;29;20048;-79
2022/06/12 10:05:19;;;;;;;9.18;2.85;;;;;;;19.71;85.76;102099.63;4912276;29;20052;-78
2022/06/12 10:08:21;;;;;;;12.52;3.33;;;;;;;19.60;86.42;102097.13;4910763;28;20040;-78
2022/06/12 10:11:16;;;;;;;11.07;3.47;;;;;;;19.49;87.22;102091.03;4897568;29;20679;-80
2022/06/12 10:13:55;;;;;;;10.40;3.38;;;;;;;19.57;88.28;102097.16;4898531;29;20431;-81
2022/06/12 10:16:41;;;;;;;12.60;3.22;;;;;;;19.75;88.07;102087.13;4907043;29;20039;-81
2022/06/12 10:19:35;;;;;;;10.35;2.95;;;;;;;20.00;88.15;102090.28;4905694;29;20459;-80
2022/06/12 10:22:13;;;;;;;12.80;3.08;;;;;;;20.33;88.46;102078.13;4864402;29;20052;-80
2022/06/12 10:24:42;;;;;;;11.23;3.45;;;;;;;20.62;85.66;102074.03;4904455;29;20048;-79
2022/06/12 10:27:16;;;;;;;11.65;3.38;;;;;;;20.90;84.80;102081.53;4909512;29;20064;-80
2022/06/12 10:29:54;;;;;;;11.38;3.10;;;;;;;21.02;83.26;102082.19;4900086;29;20048;-80
2022/06/12 10:32:27;;;;;;;6.82;2.35;;;;;;;20.98;81.06;102083.16;4924881;29;20067;-80
2022/06/12 10:35:17;;;;;;;10.82;3.50;;;;;;;20.82;78.06;102084.38;4908270;29;20063;-80
2022/06/12 10:37:46;;;;;;;11.07;2.30;;;;;;;20.68;79.54;102079.31;4878622;29;20075;-79
2022/06/12 10:40:23;;;;;;;10.10;2.50;;;;;;;20.71;78.77;102081.91;4917245;29;20047;-79
2022/06/12 10:42:58;;;;;;;6.18;2.00;;;;;;;20.85;76.53;102076.28;4905778;29;20040;-79
2022/06/12 10:45:31;;;;;;;6.18;2.33;;;;;;;21.07;74.75;102070.47;4900850;29;20059;-79
2022/06/12 10:48:04;;;;;;;6.35;2.40;;;;;;;21.28;75.11;102063.75;4907269;29;20051;-79
2022/06/12 10:50:47;;;;;;;7.85;2.50;;;;;;;21.33;73.88;102072.59;4903731;29;20063;-80
2022/06/12 10:53:18;;;;;;;6.32;2.67;;;;;;;21.34;72.10;102074.34;4884427;29;20409;-79
2022/06/12 10:56:03;;;;;;;4.97;1.80;;;;;;;21.50;67.69;102064.22;4924021;29;20047;-79
2022/06/12 10:59:03;;;;;;;2.75;1.50;;;;;;;21.64;62.87;102066.56;4894330;29;20040;-79
2022/06/12 11:01:58;;;;;;;3.33;1.45;;;;;;;21.80;59.96;102063.47;4895156;29;20052;-80
2022/06/12 11:04:37;;;;;;;9.13;1.63;;;;;;;21.89;64.91;102058.78;4906370;29;20067;-80
2022/06/12 11:07:43;;;;;;;3.17;1.63;;;;;;;21.80;59.82;102063.47;4920288;29;20056;-79
2022/06/12 11:10:18;;;;;;;6.45;1.95;;;;;;;21.84;64.09;102056.22;4882221;29;20036;-79
2022/06/12 11:13:08;;;;;;;2.63;1.40;;;;;;;21.85;60.18;102067.84;4888366;29;20561;-79
2022/06/12 11:16:02;;;;;;;5.03;2.17;;;;;;;21.75;61.36;102048.41;4894427;29;20060;-79
2022/06/12 11:18:42;;;;;;;6.85;1.70;;;;;;;21.76;59.76;102067.16;4916345;29;20048;-80
2022/06/12 11:21:32;;;;;;;2.33;1.55;;;;;;;21.87;58.01;102057.94;4914640;29;20048;-79
2022/06/12 11:24:06;;;;;;;2.80;1.60;;;;;;;22.04;60.20;102057.50;4918969;29;20041;-79
2022/06/12 11:27:12;;;;;;;3.92;2.15;;;;;;;22.23;58.09;102064.19;4869393;29;20044;-79
2022/06/12 11:30:16;;;;;;;9.38;1.83;;;;;;;22.32;58.81;102066.63;4888513;29;20567;-79
2022/06/12 11:32:44;;;;;;;6.72;1.95;;;;;;;22.30;60.28;102062.25;4904336;29;20173;-80
2022/06/12 11:35:26;;;;;;;5.35;2.00;;;;;;;22.22;59.81;102059.72;4893872;29;20048;-80
2022/06/12 11:38:13;;;;;;;6.10;2.28;;;;;;;22.04;59.48;102062.88;4914941;29;20182;-80
2022/06/12 11:40:46;;;;;;;6.18;2.10;;;;;;;21.88;60.64;102065.09;4876266;29;20380;-80
2022/06/12 11:43:37;;;;;;;9.13;2.13;;;;;;;21.75;59.38;102060.00;4908230;29;20056;-80
2022/06/12 11:46:52;;;;;;;6.15;2.17;;;;;;;21.86;60.08;102066.94;4890411;29;20075;-80
2022/06/12 11:49:43;;;;;;;4.30;1.50;;;;;;;21.76;58.42;102061.78;4867148;29;20049;-80
2022/06/12 11:52:14;;;;;;;3.88;2.00;;;;;;;21.70;61.18;102078.03;4862513;29;20056;-80
2022/06/12 11:54:49;;;;;;;3.78;1.55;;;;;;;21.68;59.34;102074.50;4899630;29;20052;-80
2022/06/12 11:57:25;;;;;;;3.65;1.77;;;;;;;21.65;59.28;102071.88;4861077;29;20056;-79
2022/06/12 11:59:57;;;;;;;3.10;1.77;;;;;;;21.45;60.30;102071.47;4909786;29;20348;-80
2022/06/12 12:02:56;;;;;;;3.78;1.88;;;;;;;21.45;59.68;102064.28;4906457;29;20045;-81
2022/06/12 12:05:50;;;;;;;7.60;1.88;;;;;;;21.48;59.39;102058.88;4903864;29;20056;-81
2022/06/12 12:08:48;;;;;;;2.75;1.52;;;;;;;21.72;62.10;102060.09;4912196;29;20044;-81
2022/06/12 12:11:24;;;;;;;8.45;2.22;;;;;;;21.97;61.63;102067.53;4881223;29;20059;-79
2022/06/12 12:13:58;;;;;;;9.85;2.03;;;;;;;21.96;61.05;102058.59;4897966;29;20173;-80
2022/06/12 12:16:39;;;;;;;9.40;2.58;;;;;;;21.79;60.76;102059.00;4897180;29;20044;-78
2022/06/12 12:19:22;;;;;;;5.93;2.10;;;;;;;21.87;60.60;102055.25;4910372;29;20063;-78